createdAt,value
2022-08-28T00:00:02.489Z,304.88
2022-08-28T00:02:29.079Z,310.50
2022-08-28T00:04:55.713Z,327.23
2022-08-28T00:07:22.385Z,325.00
2022-08-28T00:09:48.935Z,330.20
2022-08-28T00:12:15.516Z,344.75
2022-08-28T00:14:42.181Z,356.73
2022-08-28T00:17:08.710Z,356.40
2022-08-28T00:19:38.737Z,358.23
2022-08-28T00:22:06.769Z,370.45
2022-08-28T00:24:34.289Z,380.45
2022-08-28T00:27:19.373Z,380.55
2022-08-28T00:29:46.022Z,389.30
2022-08-28T00:32:13.798Z,385.13
2022-08-28T00:34:40.464Z,405.77
2022-08-28T00:37:07.546Z,386.08
2022-08-28T00:39:34.546Z,399.77
2022-08-28T00:42:01.098Z,416.60
2022-08-28T00:44:29.046Z,406.65
2022-08-28T00:46:57.803Z,414.42
2022-08-28T00:49:28.477Z,422.55
2022-08-28T00:52:05.815Z,433.75
2022-08-28T00:54:34.940Z,417.33
2022-08-28T00:57:05.128Z,411.75
2022-08-28T00:59:31.671Z,402.35
2022-08-28T01:01:59.490Z,406.83
2022-08-28T01:04:28.486Z,389.45
2022-08-28T01:06:57.220Z,380.50
2022-08-28T01:09:27.297Z,394.85
2022-08-28T01:11:57.913Z,402.90
2022-08-28T01:14:26.662Z,409.95
2022-08-28T01:16:57.191Z,405.35
2022-08-28T01:19:35.147Z,417.60
2022-08-28T01:22:21.862Z,429.08
2022-08-28T01:24:50.831Z,401.15
2022-08-28T01:27:17.454Z,413.42
2022-08-28T01:29:44.805Z,430.75
2022-08-28T01:32:28.583Z,435.13
2022-08-28T01:34:55.127Z,437.55
2022-08-28T01:37:21.687Z,445.38
2022-08-28T01:39:48.258Z,458.00
2022-08-28T01:42:14.917Z,457.27
2022-08-28T01:44:41.499Z,460.77
2022-08-28T01:47:08.128Z,460.83
2022-08-28T01:49:34.646Z,459.70
2022-08-28T01:52:01.723Z,461.15
2022-08-28T01:54:29.992Z,470.25
2022-08-28T01:56:56.694Z,469.30
2022-08-28T01:59:23.298Z,474.90
2022-08-28T02:01:49.977Z,473.23
2022-08-28T02:04:16.796Z,447.50
2022-08-28T02:06:43.665Z,448.67
2022-08-28T02:09:14.464Z,442.70
2022-08-28T02:11:46.537Z,436.70
2022-08-28T02:14:14.300Z,446.70
2022-08-28T02:16:40.858Z,435.55
2022-08-28T02:19:07.414Z,443.70
2022-08-28T02:21:35.494Z,428.58
2022-08-28T02:24:02.117Z,408.40
2022-08-28T02:26:30.401Z,444.27
2022-08-28T02:28:57.037Z,448.05
2022-08-28T02:31:25.962Z,422.15
2022-08-28T02:33:52.593Z,432.52
2022-08-28T02:36:20.847Z,411.65
2022-08-28T02:38:47.616Z,435.63
2022-08-28T02:41:14.440Z,409.35
2022-08-28T02:43:41.350Z,422.67
2022-08-28T02:46:08.421Z,420.15
2022-08-28T02:48:37.142Z,394.10
2022-08-28T02:51:08.311Z,398.27
2022-08-28T02:53:35.850Z,399.80
2022-08-28T02:56:03.096Z,376.55
2022-08-28T02:58:32.268Z,389.42
2022-08-28T03:01:01.805Z,401.23
2022-08-28T03:03:31.183Z,387.63
2022-08-28T03:06:01.843Z,390.08
2022-08-28T03:08:28.770Z,404.10
2022-08-28T03:10:55.711Z,386.42
2022-08-28T03:13:27.098Z,380.75
2022-08-28T03:15:55.855Z,370.27
2022-08-28T03:18:24.480Z,375.88
2022-08-28T03:20:52.618Z,374.13
2022-08-28T03:23:28.662Z,364.85
2022-08-28T03:26:00.153Z,364.90
2022-08-28T03:28:29.813Z,367.70
2022-08-28T03:30:57.863Z,367.13
2022-08-28T03:33:25.357Z,367.63
2022-08-28T03:35:52.135Z,355.05
2022-08-28T03:38:19.166Z,349.63
2022-08-28T03:40:46.926Z,354.63
2022-08-28T03:43:16.842Z,346.45
2022-08-28T03:46:00.632Z,350.33
2022-08-28T03:48:31.231Z,341.52
2022-08-28T03:50:59.795Z,328.25
2022-08-28T03:53:29.407Z,340.65
2022-08-28T03:55:57.053Z,335.35
2022-08-28T03:58:24.621Z,340.23
2022-08-28T04:00:51.386Z,325.35
2022-08-28T04:03:18.641Z,335.45
2022-08-28T04:05:46.770Z,333.80
2022-08-28T04:08:16.603Z,323.05
2022-08-28T04:10:44.628Z,315.30
2022-08-28T04:13:13.061Z,325.27
2022-08-28T04:15:41.515Z,311.70
2022-08-28T04:18:09.420Z,312.30
2022-08-28T04:20:36.838Z,318.17
2022-08-28T04:23:04.121Z,318.92
2022-08-28T04:25:31.387Z,316.40
2022-08-28T04:27:58.182Z,325.63
2022-08-28T04:30:24.843Z,327.10
2022-08-28T04:32:51.388Z,318.60
2022-08-28T04:35:18.394Z,320.23
2022-08-28T04:37:44.897Z,326.90
2022-08-28T04:40:12.946Z,329.70
2022-08-28T04:42:40.148Z,316.70
2022-08-28T04:45:07.802Z,324.33
2022-08-28T04:47:39.187Z,316.40
2022-08-28T04:50:07.680Z,318.30
2022-08-28T04:52:34.468Z,317.67
2022-08-28T04:55:01.667Z,318.25
2022-08-28T04:57:28.308Z,321.75
2022-08-28T04:59:54.940Z,320.85
2022-08-28T05:02:21.521Z,324.42
2022-08-28T05:04:48.329Z,318.05
2022-08-28T05:07:14.874Z,326.85
2022-08-28T05:09:41.370Z,316.85
2022-08-28T05:12:07.910Z,330.80
2022-08-28T05:14:35.519Z,338.08
2022-08-28T05:17:02.043Z,330.67
2022-08-28T05:19:28.654Z,329.90
2022-08-28T05:21:55.285Z,331.95
2022-08-28T05:24:22.473Z,325.13
2022-08-28T05:26:49.128Z,329.15
2022-08-28T05:29:16.946Z,336.83
2022-08-28T05:31:44.114Z,328.67
2022-08-28T05:34:12.750Z,334.55
2022-08-28T05:36:39.993Z,324.67
2022-08-28T05:39:10.153Z,328.52
2022-08-28T05:41:39.110Z,332.02
2022-08-28T05:44:08.287Z,335.58
2022-08-28T05:46:37.542Z,342.20
2022-08-28T05:49:09.138Z,335.67
2022-08-28T05:51:37.118Z,346.58
2022-08-28T05:54:03.981Z,333.80
2022-08-28T05:56:35.014Z,356.08
2022-08-28T05:59:03.197Z,358.75
2022-08-28T06:01:32.737Z,378.02
2022-08-28T06:04:02.075Z,381.52
2022-08-28T06:06:31.111Z,394.33
2022-08-28T06:08:59.686Z,413.80
2022-08-28T06:11:30.704Z,417.27
2022-08-28T06:14:01.791Z,437.88
2022-08-28T06:16:34.961Z,449.05
2022-08-28T06:19:01.637Z,459.25
2022-08-28T06:21:29.065Z,490.35
2022-08-28T06:23:56.159Z,475.92
2022-08-28T06:26:23.207Z,480.10
2022-08-28T06:28:49.731Z,489.83
2022-08-28T06:31:24.676Z,484.83
2022-08-28T06:33:55.164Z,492.33
2022-08-28T06:36:22.536Z,488.65
2022-08-28T06:38:49.522Z,513.50
2022-08-28T06:41:16.374Z,497.90
2022-08-28T06:43:43.001Z,509.67
2022-08-28T06:46:09.794Z,517.03
2022-08-28T06:48:36.533Z,514.60
2022-08-28T06:51:06.808Z,499.10
2022-08-28T06:53:33.582Z,509.17
2022-08-28T06:56:07.260Z,516.85
2022-08-28T06:58:35.978Z,509.42
2022-08-28T07:01:16.731Z,486.80
2022-08-28T07:03:45.035Z,523.33
2022-08-28T07:06:14.017Z,494.27
2022-08-28T07:08:42.488Z,516.40
2022-08-28T07:11:29.489Z,546.30
2022-08-28T07:13:57.031Z,548.90
2022-08-28T07:16:29.462Z,505.58
2022-08-28T07:18:57.140Z,463.85
2022-08-28T07:21:24.135Z,561.05
2022-08-28T07:23:50.662Z,551.33
2022-08-28T07:26:20.597Z,501.98
2022-08-28T07:28:47.291Z,509.55
2022-08-28T07:31:16.578Z,543.90
2022-08-28T07:33:44.819Z,558.40
2022-08-28T07:36:28.816Z,565.65
2022-08-28T07:38:57.955Z,436.33
2022-08-28T07:41:27.923Z,417.08
2022-08-28T07:44:12.992Z,448.83
2022-08-28T07:46:40.356Z,474.58
2022-08-28T07:49:08.571Z,401.27
2022-08-28T07:51:36.006Z,442.50
2022-08-28T07:54:04.047Z,507.13
2022-08-28T07:56:31.467Z,444.65
2022-08-28T07:58:59.318Z,434.85
2022-08-28T08:01:27.629Z,513.72
2022-08-28T08:04:01.308Z,379.67
2022-08-28T08:06:34.494Z,524.28
2022-08-28T08:09:02.311Z,377.00
2022-08-28T08:11:32.215Z,341.40
2022-08-28T08:14:05.676Z,323.63
2022-08-28T08:16:41.258Z,303.02
2022-08-28T08:19:10.171Z,280.85
2022-08-28T08:21:37.603Z,239.25
2022-08-28T08:24:04.488Z,273.98
2022-08-28T08:26:31.269Z,302.88
2022-08-28T08:29:04.963Z,364.05
2022-08-28T08:31:33.280Z,343.83
2022-08-28T08:34:04.722Z,365.83
2022-08-28T08:36:34.235Z,394.58
2022-08-28T08:39:01.860Z,409.55
2022-08-28T08:41:43.581Z,377.88
2022-08-28T08:44:23.460Z,389.40
2022-08-28T08:47:27.051Z,332.50
2022-08-28T08:50:27.452Z,353.33
2022-08-28T08:53:21.591Z,328.65
2022-08-28T08:55:50.826Z,287.38
2022-08-28T08:58:35.242Z,273.42
2022-08-28T09:01:04.712Z,290.75
2022-08-28T09:03:49.525Z,284.38
2022-08-28T09:06:29.891Z,236.60
2022-08-28T09:09:00.468Z,222.38
2022-08-28T09:11:41.715Z,230.55
2022-08-28T09:14:33.058Z,176.40
2022-08-28T09:17:00.811Z,143.50
2022-08-28T09:19:27.403Z,119.82
2022-08-28T09:21:54.507Z,83.80
2022-08-28T09:24:22.656Z,69.03
2022-08-28T09:26:56.535Z,55.47
2022-08-28T09:29:47.079Z,51.58
2022-08-28T09:32:16.565Z,51.28
2022-08-28T09:35:06.346Z,51.03
2022-08-28T09:37:34.695Z,51.15
2022-08-28T09:40:20.310Z,45.58
2022-08-28T09:43:28.200Z,42.17
2022-08-28T09:45:58.274Z,38.28
2022-08-28T09:48:36.474Z,39.20
2022-08-28T09:51:07.836Z,36.50
2022-08-28T09:54:02.023Z,40.03
2022-08-28T09:59:06.845Z,42.63
2022-08-28T10:01:52.566Z,31.88
2022-08-28T10:04:19.483Z,31.15
2022-08-28T10:06:54.937Z,28.75
2022-08-28T10:09:45.126Z,24.50
2022-08-28T10:12:26.544Z,29.02
2022-08-28T10:15:13.190Z,32.20
2022-08-28T10:17:49.863Z,24.48
2022-08-28T10:20:38.539Z,24.63
2022-08-28T10:23:24.778Z,25.67
2022-08-28T10:26:19.478Z,23.33
2022-08-28T10:29:16.255Z,22.23
2022-08-28T10:32:20.873Z,22.10
2022-08-28T10:34:50.341Z,20.92
2022-08-28T10:37:56.755Z,20.98
2022-08-28T10:40:28.555Z,21.92
2022-08-28T10:43:04.248Z,23.48
2022-08-28T10:45:33.593Z,24.60
2022-08-28T10:48:27.301Z,23.83
2022-08-28T10:51:00.795Z,25.73
2022-08-28T10:56:13.116Z,24.83
2022-08-28T10:58:40.924Z,22.75
2022-08-28T11:01:32.900Z,21.85
2022-08-28T11:04:03.451Z,21.27
2022-08-28T11:06:39.031Z,22.42
2022-08-28T11:09:25.795Z,23.55
2022-08-28T11:12:10.145Z,23.17
2022-08-28T11:14:47.762Z,21.83
2022-08-28T11:17:30.476Z,22.42
2022-08-28T11:20:00.147Z,21.35
2022-08-28T11:22:51.100Z,21.23
2022-08-28T11:25:32.503Z,20.95
2022-08-28T11:28:23.675Z,19.80
2022-08-28T11:31:05.597Z,21.15
2022-08-28T11:33:52.634Z,20.65
2022-08-28T11:36:21.879Z,20.13
2022-08-28T11:38:51.356Z,20.55
2022-08-28T11:41:30.384Z,19.63
2022-08-28T11:43:59.632Z,19.17
2022-08-28T11:46:32.730Z,18.70
2022-08-28T11:49:02.275Z,18.65
2022-08-28T11:52:01.553Z,19.02
2022-08-28T11:54:47.173Z,18.08
2022-08-28T11:57:15.031Z,18.27
2022-08-28T12:00:18.791Z,17.33
2022-08-28T12:02:49.623Z,18.88
2022-08-28T12:05:16.154Z,18.67
2022-08-28T12:07:45.125Z,17.85
2022-08-28T12:10:20.721Z,20.23
2022-08-28T12:12:47.202Z,19.05
2022-08-28T12:15:28.731Z,19.63
2022-08-28T12:18:06.129Z,18.10
2022-08-28T12:20:40.946Z,18.45
2022-08-28T12:23:35.059Z,17.88
2022-08-28T12:26:06.664Z,18.42
2022-08-28T12:28:46.675Z,16.90
2022-08-28T12:31:56.987Z,18.52
2022-08-28T12:34:51.556Z,18.02
2022-08-28T12:37:52.203Z,17.40
2022-08-28T12:40:31.843Z,18.05
2022-08-28T12:43:04.216Z,18.27
2022-08-28T12:45:48.743Z,17.08
2022-08-28T12:48:22.982Z,17.83
2022-08-28T12:50:58.869Z,17.88
2022-08-28T12:53:27.584Z,16.98
2022-08-28T12:55:55.643Z,16.13
2022-08-28T12:58:39.391Z,17.35
2022-08-28T13:01:10.251Z,17.00
2022-08-28T13:03:50.123Z,17.40
2022-08-28T13:06:25.098Z,17.83
2022-08-28T13:08:59.718Z,17.45
2022-08-28T13:11:30.693Z,17.17
2022-08-28T13:13:57.243Z,18.27
2022-08-28T13:16:43.655Z,19.92
2022-08-28T13:19:10.708Z,23.08
2022-08-28T13:22:00.536Z,23.80
2022-08-28T13:24:35.815Z,25.55
2022-08-28T13:27:08.811Z,26.42
2022-08-28T13:29:36.985Z,27.48
2022-08-28T13:32:17.506Z,32.47
2022-08-28T13:35:12.870Z,31.77
2022-08-28T13:37:53.311Z,34.30
2022-08-28T13:40:55.788Z,34.05
2022-08-28T13:43:12.876Z,34.13
2022-08-28T13:45:42.944Z,38.17
2022-08-28T13:48:13.255Z,34.15
2022-08-28T13:50:47.191Z,36.13
2022-08-28T13:53:14.941Z,31.67
2022-08-28T13:55:41.558Z,31.52
2022-08-28T13:58:08.146Z,24.95
2022-08-28T14:00:39.837Z,22.63
2022-08-28T14:03:25.130Z,21.52
2022-08-28T14:05:51.655Z,19.80
2022-08-28T14:08:18.205Z,19.13
2022-08-28T14:10:44.734Z,18.10
2022-08-28T14:13:11.267Z,18.65
2022-08-28T14:15:38.382Z,18.67
2022-08-28T14:18:05.498Z,18.48
2022-08-28T14:20:32.786Z,17.95
2022-08-28T14:22:59.374Z,18.40
2022-08-28T14:25:26.014Z,17.63
2022-08-28T14:27:52.577Z,18.80
2022-08-28T14:30:19.889Z,19.77
2022-08-28T14:32:46.415Z,18.48
2022-08-28T14:35:13.109Z,18.85
2022-08-28T14:37:39.718Z,19.65
2022-08-28T14:40:07.161Z,19.20
2022-08-28T14:42:33.727Z,18.05
2022-08-28T14:45:00.310Z,17.70
2022-08-28T14:47:27.122Z,18.25
2022-08-28T14:49:53.716Z,18.35
2022-08-28T14:52:20.299Z,18.30
2022-08-28T14:54:46.780Z,19.30
2022-08-28T14:57:13.665Z,20.48
2022-08-28T14:59:40.265Z,18.48
2022-08-28T15:02:07.824Z,18.50
2022-08-28T15:04:35.363Z,19.20
2022-08-28T15:07:06.396Z,20.38
2022-08-28T15:09:36.837Z,19.73
2022-08-28T15:12:03.662Z,19.23
2022-08-28T15:14:30.425Z,18.63
2022-08-28T15:16:57.089Z,18.05
2022-08-28T15:19:24.092Z,18.42
2022-08-28T15:21:54.063Z,19.20
2022-08-28T15:24:24.293Z,19.83
2022-08-28T15:26:50.928Z,19.65
2022-08-28T15:29:18.277Z,19.00
2022-08-28T15:31:48.944Z,20.35
2022-08-28T15:34:21.338Z,20.60
2022-08-28T15:36:54.863Z,21.42
2022-08-28T15:39:42.755Z,23.38
2022-08-28T15:42:10.331Z,22.65
2022-08-28T15:44:37.417Z,24.50
2022-08-28T15:47:05.047Z,25.00
2022-08-28T15:49:36.156Z,25.52
2022-08-28T15:52:10.805Z,27.60
2022-08-28T15:54:37.546Z,30.08
2022-08-28T15:57:04.231Z,29.35
2022-08-28T15:59:39.977Z,30.98
2022-08-28T16:02:17.805Z,37.25
2022-08-28T16:04:44.398Z,40.78
2022-08-28T16:07:11.159Z,39.53
2022-08-28T16:09:37.811Z,39.42
2022-08-28T16:12:04.502Z,38.53
2022-08-28T16:14:32.764Z,39.08
2022-08-28T16:16:59.395Z,39.28
2022-08-28T16:21:59.076Z,26.15
2022-08-28T16:24:25.652Z,20.38
2022-08-28T16:26:52.161Z,20.45
2022-08-28T16:29:18.879Z,16.38
2022-08-28T16:31:47.990Z,16.42
2022-08-28T16:34:15.589Z,17.27
2022-08-28T16:36:48.148Z,20.77
2022-08-28T16:39:14.866Z,22.33
2022-08-28T16:41:42.171Z,23.67
2022-08-28T16:44:09.075Z,26.30
2022-08-28T16:46:35.725Z,25.38
2022-08-28T16:49:02.584Z,27.13
2022-08-28T16:51:29.762Z,30.48
2022-08-28T16:53:56.882Z,34.10
2022-08-28T16:56:26.723Z,30.88
2022-08-28T16:58:53.974Z,31.42
2022-08-28T17:01:24.071Z,30.80
2022-08-28T17:03:54.717Z,30.23
2022-08-28T17:06:27.116Z,31.60
2022-08-28T17:08:56.895Z,37.35
2022-08-28T17:11:25.905Z,34.15
2022-08-28T17:13:53.210Z,35.42
2022-08-28T17:16:20.804Z,32.80
2022-08-28T17:18:51.987Z,37.55
2022-08-28T17:21:38.476Z,33.45
2022-08-28T17:24:05.407Z,31.90
2022-08-28T17:26:31.943Z,32.97
2022-08-28T17:28:58.615Z,34.22
2022-08-28T17:31:25.177Z,37.33
2022-08-28T17:33:51.806Z,39.28
2022-08-28T17:36:25.675Z,38.22
2022-08-28T17:39:05.606Z,44.10
2022-08-28T17:41:33.432Z,41.90
2022-08-28T17:44:01.316Z,43.45
2022-08-28T17:46:28.246Z,42.97
2022-08-28T17:48:56.097Z,42.00
2022-08-28T17:51:40.418Z,39.92
2022-08-28T17:54:16.797Z,38.83
2022-08-28T17:56:43.962Z,32.13
2022-08-28T17:59:11.825Z,31.23
2022-08-28T18:01:38.929Z,25.92
2022-08-28T18:04:05.895Z,25.27
2022-08-28T18:06:33.512Z,27.15
2022-08-28T18:09:00.455Z,31.25
2022-08-28T18:11:27.442Z,62.47
2022-08-28T18:13:54.169Z,48.63
2022-08-28T18:16:20.941Z,66.10
2022-08-28T18:18:47.666Z,64.85
2022-08-28T18:21:14.811Z,80.70
2022-08-28T18:23:41.408Z,93.03
2022-08-28T18:26:08.613Z,133.38
2022-08-28T18:28:35.646Z,153.70
2022-08-28T18:31:03.174Z,137.27
2022-08-28T18:33:29.735Z,236.15
2022-08-28T18:35:56.873Z,165.40
2022-08-28T18:38:28.063Z,168.15
2022-08-28T18:40:55.902Z,178.68
2022-08-28T18:43:22.560Z,178.52
2022-08-28T18:45:49.635Z,271.92
2022-08-28T18:48:16.881Z,261.05
2022-08-28T18:50:46.416Z,262.58
2022-08-28T18:53:18.089Z,212.75
2022-08-28T18:55:45.813Z,217.55
2022-08-28T18:58:15.447Z,289.35
2022-08-28T19:00:42.712Z,224.82
2022-08-28T19:03:09.957Z,222.63
2022-08-28T19:05:37.870Z,243.35
2022-08-28T19:08:04.661Z,236.07
2022-08-28T19:10:34.738Z,289.88
2022-08-28T19:13:02.462Z,263.45
2022-08-28T19:15:29.507Z,287.20
2022-08-28T19:17:56.141Z,282.80
2022-08-28T19:20:22.923Z,275.92
2022-08-28T19:22:49.848Z,343.05
2022-08-28T19:25:27.893Z,337.63
2022-08-28T19:28:01.546Z,427.10
2022-08-28T19:30:32.909Z,366.80
2022-08-28T19:33:02.161Z,426.48
2022-08-28T19:35:28.857Z,427.00
2022-08-28T19:37:55.430Z,465.65
2022-08-28T19:40:22.490Z,462.70
2022-08-28T19:42:52.119Z,442.35
2022-08-28T19:45:19.621Z,525.22
2022-08-28T19:47:47.211Z,543.42
2022-08-28T19:50:15.726Z,481.90
2022-08-28T19:52:43.398Z,516.40
2022-08-28T19:55:17.393Z,550.38
2022-08-28T20:00:11.248Z,572.70
2022-08-28T20:02:37.815Z,558.30
2022-08-28T20:05:05.507Z,614.95
2022-08-28T20:07:32.014Z,603.70
2022-08-28T20:09:58.559Z,613.28
2022-08-28T20:12:25.159Z,593.85
2022-08-28T20:14:52.040Z,601.63
2022-08-28T20:17:18.831Z,580.90
2022-08-28T20:19:48.782Z,607.50
2022-08-28T20:22:15.607Z,635.55
2022-08-28T20:24:42.325Z,635.85
2022-08-28T20:27:09.190Z,617.10
2022-08-28T20:29:36.055Z,624.28
2022-08-28T20:32:03.242Z,621.08
2022-08-28T20:34:29.838Z,647.70
2022-08-28T20:36:56.394Z,639.67
2022-08-28T20:39:23.346Z,642.90
2022-08-28T20:41:49.981Z,659.70
2022-08-28T20:44:19.386Z,641.17
2022-08-28T20:46:51.081Z,645.70
2022-08-28T20:49:21.737Z,649.10
2022-08-28T20:51:54.549Z,661.92
2022-08-28T20:54:24.468Z,672.47
2022-08-28T20:56:52.146Z,649.03
2022-08-28T20:59:20.096Z,659.40
2022-08-28T21:01:46.750Z,660.05
2022-08-28T21:04:13.384Z,655.22
2022-08-28T21:06:39.925Z,671.17
2022-08-28T21:09:06.475Z,685.95
2022-08-28T21:11:33.634Z,680.00
2022-08-28T21:14:00.235Z,684.17
2022-08-28T21:16:26.835Z,689.47
2022-08-28T21:19:14.869Z,707.13
2022-08-28T21:21:41.174Z,700.70
2022-08-28T21:24:10.699Z,713.85
2022-08-28T21:26:39.370Z,728.08
2022-08-28T21:29:09.792Z,692.58
2022-08-28T21:31:36.978Z,724.45
2022-08-28T21:34:03.520Z,718.63
2022-08-28T21:36:30.134Z,704.50
2022-08-28T21:38:57.910Z,693.17
2022-08-28T21:41:24.507Z,676.67
2022-08-28T21:43:51.052Z,656.75
2022-08-28T21:46:17.654Z,647.78
2022-08-28T21:48:48.427Z,623.10
2022-08-28T21:51:16.401Z,616.63
2022-08-28T21:53:43.269Z,609.70
2022-08-28T21:56:10.651Z,612.40
2022-08-28T21:58:38.641Z,599.70
2022-08-28T22:01:05.528Z,606.67
2022-08-28T22:03:32.325Z,614.88
2022-08-28T22:05:58.868Z,603.15
2022-08-28T22:08:28.685Z,609.10
2022-08-28T22:10:56.454Z,610.05
2022-08-28T22:13:22.993Z,604.85
2022-08-28T22:15:49.543Z,590.35
2022-08-28T22:18:16.316Z,587.28
2022-08-28T22:21:02.827Z,598.35
2022-08-28T22:23:33.636Z,565.13
2022-08-28T22:26:03.359Z,561.60
2022-08-28T22:28:31.362Z,547.97
2022-08-28T22:30:58.594Z,535.15
2022-08-28T22:33:26.254Z,534.22
2022-08-28T22:35:53.235Z,541.33
2022-08-28T22:38:21.386Z,545.28
2022-08-28T22:40:48.474Z,535.25
2022-08-28T22:43:16.422Z,534.38
2022-08-28T22:45:46.364Z,534.03
2022-08-28T22:48:15.086Z,524.53
2022-08-28T22:50:43.067Z,522.72
2022-08-28T22:53:10.422Z,506.58
2022-08-28T22:55:41.377Z,507.67
2022-08-28T22:58:10.905Z,496.98
2022-08-28T23:00:40.110Z,479.30
2022-08-28T23:03:06.864Z,469.70
2022-08-28T23:05:33.983Z,481.50
2022-08-28T23:08:00.514Z,469.70
2022-08-28T23:10:48.372Z,478.98
2022-08-28T23:13:15.184Z,460.40
2022-08-28T23:15:43.381Z,441.27
2022-08-28T23:18:11.117Z,433.13
2022-08-28T23:20:39.398Z,448.02
2022-08-28T23:23:06.789Z,440.00
2022-08-28T23:25:34.195Z,453.17
2022-08-28T23:28:05.853Z,452.13
2022-08-28T23:30:33.406Z,443.88
2022-08-28T23:33:00.012Z,375.98
2022-08-28T23:35:26.700Z,356.55
2022-08-28T23:37:53.312Z,351.13
2022-08-28T23:40:22.564Z,344.27
2022-08-28T23:42:49.330Z,338.13
2022-08-28T23:45:17.224Z,336.10
2022-08-28T23:47:44.387Z,339.48
2022-08-28T23:50:20.481Z,346.98
2022-08-28T23:52:47.975Z,338.23
2022-08-28T23:55:16.759Z,342.38
2022-08-28T23:57:44.109Z,327.92
